• Join FlightAware (Why Join?)
  • Login
  • US Flag 
10:38AM EDT


 

Airport Tracker/Info


-or-


 

Live Flight TrackerFlight Track Log ✈ SWA1798 ✈ 02-Nov-2013 ✈ KBWI - KMKE

Flight Track Log - Related Links

Times and Time Zones

All times are in EDT time to prevent confusion due to time zone crossing. See the SWA1798 flight status page for this flight to view local times or setup timezone preferences in your user account.

Time Position Orientation Groundspeed Altitude Reporting Facility
EDT Latitude Longitude Course Direction KTS MPH feet Rate Location/Type
04:26PM 39.1833 -76.7667 288° West 206 237 3,600  Level Potomac TRACON
04:27PM 39.2000 -76.8500 284° West 254 292 6,200 2,700 Climbing Potomac TRACON
04:28PM 39.2133 -77.0247 276° West 269 310 11,300 2,880 Climbing Washington Center
04:29PM 39.2267 -77.1375 279° West 292 336 14,500 2,700 Climbing Washington Center
04:30PM 39.2753 -77.2350 303° West 310 357 16,800 2,640 Climbing Washington Center
04:31PM 39.3281 -77.3408 303° West 323 372 19,700 2,460 Climbing Washington Center
04:32PM 39.3825 -77.4497 303° West 338 389 21,700 1,620 Climbing Washington Center
04:33PM 39.4414 -77.5639 304° West 360 414 23,000 1,860 Climbing Washington Center
04:34PM 39.4850 -77.6861 295° West 372 428 25,400 1,800 Climbing Washington Center
04:35PM 39.5225 -77.8111 291° West 372 428 26,600 1,380 Climbing Washington Center
04:38PM 39.6178 -78.1333 291° West 398 458 30,200 1,260 Climbing Cleveland Center
04:39PM 39.6586 -78.2631 292° West 391 450 31,100 1,080 Climbing Cleveland Center
04:40PM 39.7228 -78.3892 304° West 413 475 32,500 1,200 Climbing Cleveland Center
04:41PM 39.7892 -78.5183 304° West 413 475 33,700 1,200 Climbing Cleveland Center
04:42PM 39.8497 -78.6378 303° West 394 453 35,000 600 Climbing Cleveland Center
04:43PM 39.9228 -78.7872 303° West 401 461 35,000  Level Cleveland Center
04:44PM 39.9839 -78.9142 302° West 408 470 35,000  Level Cleveland Center
04:45PM 40.0472 -79.0442 303° West 408 470 35,000 360 Level Cleveland Center
04:46PM 40.1081 -79.1664 303° West 414 476 35,800 480 Climbing Cleveland Center
04:47PM 40.1672 -79.2897 302° West 404 465 36,000 60 Climbing Cleveland Center
04:48PM 40.2303 -79.4194 303° West 408 470 36,000  Level Cleveland Center
04:49PM 40.2906 -79.5447 302° West 407 468 36,000  Level Cleveland Center
04:50PM 40.3464 -79.6714 300° West 406 467 36,000  Level Cleveland Center
04:51PM 40.3825 -79.8025 290° West 386 444 36,000  Level Cleveland Center
04:52PM 40.4278 -79.9622 290° West 394 453 36,000  Level Cleveland Center
04:53PM 40.4642 -80.0919 290° West 390 449 36,000  Level Cleveland Center
04:54PM 40.5053 -80.2208 293° West 383 441 36,000  Level Cleveland Center
04:55PM 40.5703 -80.3475 304° West 400 460 36,000  Level Cleveland Center
04:56PM 40.6317 -80.4719 303° West 402 463 36,000  Level Cleveland Center
04:57PM 40.6933 -80.5961 303° West 402 463 36,000  Level Cleveland Center
04:58PM 40.7628 -80.7317 304° West 406 467 36,000  Level Cleveland Center
04:59PM 40.8367 -80.8489 310° West 415 478 36,000  Level Cleveland Center
05:00PM 40.9092 -80.9683 309° West 417 480 36,000  Level Cleveland Center
05:01PM 40.9764 -81.0806 308° West 415 478 36,000  Level Cleveland Center
05:02PM 41.0614 -81.2242 308° West 421 484 36,000  Level Cleveland Center
05:03PM 41.1344 -81.3458 309° West 419 482 36,000  Level Cleveland Center
05:05PM 41.1967 -81.4511 308° West 420 483 36,000  Level Cleveland Center
05:06PM 41.2825 -81.5961 308° West 416 479 36,000  Level Cleveland Center
05:07PM 41.3533 -81.7156 308° West 413 475 36,000  Level Cleveland Center
05:08PM 41.4161 -81.8225 308° West 412 474 36,000  Level Cleveland Center
05:09PM 41.4989 -81.9633 308° West 411 473 36,000  Level Cleveland Center
05:10PM 41.5711 -82.0858 308° West 415 478 36,000  Level Cleveland Center
05:11PM 41.6442 -82.2114 308° West 422 486 36,000  Level Cleveland Center
05:12PM 41.7164 -82.3364 308° West 423 487 36,000  Level Cleveland Center
05:13PM 41.7869 -82.4608 307° West 421 484 36,000  Level Cleveland Center
05:14PM 41.8578 -82.5833 308° West 416 479 36,000  Level Cleveland Center
05:15PM 41.9267 -82.7042 307° West 413 475 36,000  Level Cleveland Center
05:16PM 41.9958 -82.8244 308° West 410 472 36,000  Level Cleveland Center
05:17PM 42.0642 -82.9461 307° West 408 470 36,000  Level Cleveland Center
05:18PM 42.1333 -83.0681 307° West 411 473 36,000  Level Cleveland Center
05:19PM 42.2158 -83.2158 307° West 413 475 36,000  Level Cleveland Center
05:20PM 42.2781 -83.3272 307° West 414 476 36,000  Level Cleveland Center
05:21PM 42.3617 -83.4714 308° West 415 478 36,000  Level Cleveland Center
05:22PM 42.4222 -83.5844 306° West 416 479 36,000  Level Cleveland Center
05:23PM 42.5011 -83.7286 307° West 415 478 36,000  Level Cleveland Center
05:24PM 42.5703 -83.8528 307° West 415 478 36,000  Level Cleveland Center
05:25PM 42.6383 -83.9772 307° West 413 475 36,000  Level Cleveland Center
05:26PM 42.7067 -84.1017 307° West 412 474 36,000  Level Cleveland Center
05:27PM 42.7736 -84.2250 307° West 409 471 36,000  Level Cleveland Center
05:28PM 42.8472 -84.3592 307° West 407 468 36,000  Level Cleveland Center
05:29PM 42.9142 -84.4831 306° West 406 467 36,000  Level Cleveland Center
05:30PM 42.9925 -84.6314 306° West 403 464 36,000  Level Chicago Center
05:31PM 43.0589 -84.7550 306° West 405 466 36,000  Level Chicago Center
05:32PM 43.1239 -84.8786 306° West 403 464 36,000  Level Chicago Center
05:33PM 43.1453 -85.0261 281° West 401 461 36,000  Level Chicago Center
05:34PM 43.1494 -85.1778 272° West 401 461 36,000  Level Chicago Center
05:35PM 43.1528 -85.3281 272° West 397 457 36,000  Level Chicago Center
05:36PM 43.1578 -85.5086 272° West 397 457 36,000  Level Chicago Center
05:37PM 43.1614 -85.6575 272° West 394 453 36,000 -1,020 Level Chicago Center
05:38PM 43.1647 -85.8075 272° West 397 457 34,000 -2,160 Descending Chicago Center
05:40PM 43.1672 -85.9531 271° West 392 451 31,600 -2,940 Descending Chicago Center
05:41PM 43.1689 -86.0992 271° West 394 453 28,000 -3,000 Descending Chicago Center
05:42PM 43.1661 -86.2761 269° West 396 456 25,500 -2,400 Descending Chicago Center
05:43PM 43.1636 -86.4069 269° West 356 410 23,200 -2,280 Descending Chicago Center
05:44PM 43.1619 -86.5381 269° West 348 400 20,800 -2,400 Descending Chicago Center
05:45PM 43.1592 -86.6644 268° West 336 387 18,300 -2,160 Descending Chicago Center
05:46PM 43.1575 -86.7883 269° West 324 373 16,400 -2,040 Descending Chicago Center
05:47PM 43.1553 -86.9025 269° West 310 357 14,200 -1,920 Descending Chicago Center
05:48PM 43.1514 -87.0425 268° West 308 354 12,500 -1,620 Descending Chicago Center
05:49PM 43.1411 -87.1539 263° West 296 341 10,900 -1,260 Descending Chicago Center
05:50PM 43.1025 -87.2458 240° Southwest 283 326 9,900 -1,080 Descending Chicago Center
05:51PM 43.0669 -87.3372 242° Southwest 276 318 8,800 -1,560 Descending Chicago Center
05:52PM 43.0244 -87.4419 241° Southwest 280 322 6,800 -1,800 Descending Chicago Center
05:53PM 42.9878 -87.5317 241° Southwest 274 315 5,200 -1,440 Descending Chicago Center
05:54PM 42.9544 -87.6169 242° Southwest 262 302 3,900 -960 Descending Chicago Center
05:55PM 42.9231 -87.6958 242° Southwest 246 283 3,300 -480 Descending Chicago Center
05:56PM 42.8978 -87.7594 242° Southwest 206 237 3,000 -300 Descending Chicago Center
05:57PM 42.8767 -87.8236 246° West 191 220 2,800 -540 Descending Chicago Center
05:58PM 42.8711 -87.8886 263° West 170 196 2,000 -660 Descending Chicago Center
05:59PM 42.8964 -87.9044 335° Northwest 145 167 1,500 -540 Descending Chicago Center
06:01PM 42.9469 -87.8971 North  Level Estimated
06:08PM 42.9469 -87.8971 59° Northeast  Level Estimated